Latest Weather Observations for Wattamolla

IDN60901

Issued at 1:31 pm EST Tuesday 22 August 2017 (issued every 10 minutes, with the page automatically refreshed every 10 minutes)

About weather observations | Map of Sydney area stations | Latest observations for Sydney area | Other Formats
Station Details ID: 066208 Name: WATTAMOLLA AWS Lat: -34.14 Lon: 151.12 Height: 44.0 m
Data from the previous 72 hours. | See also: Recent months for locations in New South Wales
Date/Time
EST
Temp
°C
App
Temp
°C
Dew
Point
°C
Rel
Hum
%
Delta-T
°C
Wind Press
QNH
hPa
Press
MSL
hPa
Rain since
9am
mm
Dir  Spd
km/h
Gust
km/h
Spd
kts
Gust
kts
22/01:30pm - - - - - SSE 19 26 10 14 - - -
22/01:00pm - - - - - SSE 19 26 10 14 - - -
22/12:30pm - - - - - SSE 20 28 11 15 - - -
22/12:00pm - - - - - SSE 20 26 11 14 - - -
22/11:30am - - - - - SSE 19 26 10 14 - - -
22/11:00am - - - - - S 17 24 9 13 - - -
22/10:30am - - - - - SSE 15 19 8 10 - - -
22/10:00am - - - - - S 15 17 8 9 - - -
22/09:30am - - - - - S 13 17 7 9 - - -
22/09:00am - - - - - S 17 20 9 11 - - -
22/08:30am - - - - - SSW 9 17 5 9 - - -
22/08:00am - - - - - WNW 11 13 6 7 - - -
22/07:30am - - - - - W 11 13 6 7 - - -
22/07:00am - - - - - WNW 13 13 7 7 - - -
22/06:30am - - - - - NW 17 19 9 10 - - -
22/06:00am - - - - - WNW 13 13 7 7 - - -
22/05:30am - - - - - WNW 13 17 7 9 - - -
22/05:00am - - - - - SW 17 17 9 9 - - -
22/04:30am - - - - - WSW 15 19 8 10 - - -
22/04:00am - - - - - SW 13 17 7 9 - - -
22/03:30am - - - - - WSW 11 15 6 8 - - -
22/03:00am - - - - - WNW 13 17 7 9 - - -
22/02:30am - - - - - WNW 13 17 7 9 - - -
22/02:00am - - - - - WNW 9 13 5 7 - - -
22/01:30am - - - - - WNW 13 15 7 8 - - -
22/01:00am - - - - - WNW 11 13 6 7 - - -
22/12:30am - - - - - W 11 13 6 7 - - -
22/12:00am - - - - - W 11 13 6 7 - - -
 
Date/Time
EST
Temp
°C
App
Temp
°C
Dew
Point
°C
Rel
Hum
%
Delta-T
°C
Wind Press
QNH
hPa
Press
MSL
hPa
Rain since
9am
mm
Dir  Spd
km/h
Gust
km/h
Spd
kts
Gust
kts
21/11:30pm - - - - - WSW 13 13 7 7 - - -
21/11:00pm - - - - - W 13 19 7 10 - - -
21/10:30pm - - - - - S 19 24 10 13 - - -
21/10:00pm - - - - - SSE 20 28 11 15 - - -
21/09:30pm - - - - - SW 13 15 7 8 - - -
21/09:00pm - - - - - SW 15 20 8 11 - - -
21/08:30pm - - - - - W 15 19 8 10 - - -
21/08:00pm - - - - - WNW 15 17 8 9 - - -
21/07:30pm - - - - - NW 13 15 7 8 - - -
21/07:00pm - - - - - NW 13 15 7 8 - - -
21/06:30pm - - - - - NW 11 13 6 7 - - -
21/06:00pm - - - - - NW 11 13 6 7 - - -
21/05:30pm - - - - - N 9 11 5 6 - - -
21/05:00pm - - - - - N 7 9 4 5 - - -
21/04:30pm - - - - - N 9 13 5 7 - - -
21/04:00pm - - - - - N 11 15 6 8 - - -
21/03:30pm - - - - - NNE 11 17 6 9 - - -
21/03:00pm - - - - - NNE 13 17 7 9 - - -
21/02:30pm - - - - - NNE 17 26 9 14 - - -
21/02:00pm - - - - - N 13 19 7 10 - - -
21/01:30pm - - - - - NNW 13 19 7 10 - - -
21/01:00pm - - - - - NNW 9 13 5 7 - - -
21/12:30pm - - - - - NNW 20 32 11 17 - - -
21/12:00pm - - - - - NNW 20 30 11 16 - - -
21/11:30am - - - - - NNW 17 28 9 15 - - -
21/11:00am - - - - - NNW 17 28 9 15 - - -
21/10:30am - - - - - NNW 15 26 8 14 - - -
21/10:00am - - - - - NNW 13 19 7 10 - - -
21/09:30am - - - - - NW 15 20 8 11 - - -
21/09:00am - - - - - NNW 15 22 8 12 - - -
21/08:30am - - - - - NW 17 26 9 14 - - -
21/08:00am - - - - - WNW 19 26 10 14 - - -
21/07:30am - - - - - WNW 19 24 10 13 - - -
21/07:00am - - - - - NW 20 26 11 14 - - -
21/06:30am - - - - - WNW 17 22 9 12 - - -
21/06:00am - - - - - WNW 19 24 10 13 - - -
21/05:30am - - - - - WNW 19 24 10 13 - - -
21/05:00am - - - - - WNW 20 24 11 13 - - -
21/04:30am - - - - - WNW 20 26 11 14 - - -
21/04:00am - - - - - WNW 22 26 12 14 - - -
21/03:30am - - - - - WNW 22 26 12 14 - - -
21/03:00am - - - - - WNW 24 28 13 15 - - -
21/02:30am - - - - - WNW 22 26 12 14 - - -
21/02:00am - - - - - NW 17 20 9 11 - - -
21/01:30am - - - - - NW 20 26 11 14 - - -
21/01:00am - - - - - NW 19 20 10 11 - - -
21/12:30am - - - - - NW 15 19 8 10 - - -
21/12:00am - - - - - W 11 13 6 7 - - -
 
Date/Time
EST
Temp
°C
App
Temp
°C
Dew
Point
°C
Rel
Hum
%
Delta-T
°C
Wind Press
QNH
hPa
Press
MSL
hPa
Rain since
9am
mm
Dir  Spd
km/h
Gust
km/h
Spd
kts
Gust
kts
20/11:30pm - - - - - SW 9 11 5 6 - - -
20/11:00pm - - - - - S 11 13 6 7 - - -
20/10:30pm - - - - - W 9 11 5 6 - - -
20/10:00pm - - - - - SW 11 15 6 8 - - -
20/09:30pm - - - - - SSW 11 15 6 8 - - -
20/09:00pm - - - - - SSW 11 17 6 9 - - -
20/08:30pm - - - - - SSE 19 30 10 16 - - -
20/08:00pm - - - - - SSE 28 33 15 18 - - -
20/07:30pm - - - - - S 32 37 17 20 - - -
20/07:00pm - - - - - SSE 33 39 18 21 - - -
20/06:30pm - - - - - SSE 32 39 17 21 - - -
20/06:00pm - - - - - SSE 35 43 19 23 - - -
20/05:30pm - - - - - SSE 39 50 21 27 - - -
20/05:00pm - - - - - SSE 39 48 21 26 - - -
20/04:30pm - - - - - SSE 35 46 19 25 - - -
20/04:00pm - - - - - SSE 37 48 20 26 - - -
20/03:30pm - - - - - S 35 46 19 25 - - -
20/03:00pm - - - - - S 39 56 21 30 - - -
20/02:56pm - - - - - S 35 56 19 30 - - -
20/02:30pm - - - - - S 39 52 21 28 - - -
20/02:00pm - - - - - S 43 54 23 29 - - -
20/01:39pm - - - - - SSE 39 57 21 31 - - -
20/01:30pm - - - - - S 43 57 23 31 - - -
20/01:06pm - - - - - S 46 67 25 36 - - -
20/01:00pm - - - - - S 46 57 25 31 - - -
20/12:30pm - - - - - S 50 59 27 32 - - -
20/12:00pm - - - - - S 50 57 27 31 - - -
20/11:30am - - - - - S 46 57 25 31 - - -
20/11:00am - - - - - S 50 59 27 32 - - -
20/10:30am - - - - - S 50 61 27 33 - - -
20/10:02am - - - - - S 46 67 25 36 - - -
20/10:00am - - - - - S 46 59 25 32 - - -
20/09:30am - - - - - S 46 57 25 31 - - -
20/09:16am - - - - - S 43 61 23 33 - - -
20/09:00am - - - - - S 48 63 26 34 - - -
20/08:30am - - - - - S 44 61 24 33 - - -
20/08:00am - - - - - S 44 65 24 35 - - -
20/07:30am - - - - - S 37 57 20 31 - - -
20/07:00am - - - - - SSE 46 67 25 36 - - -
20/06:44am - - - - - SSE 46 65 25 35 - - -
20/06:30am - - - - - S 48 65 26 35 - - -
20/06:05am - - - - - S 52 70 28 38 - - -
20/06:00am - - - - - S 54 69 29 37 - - -
20/05:30am - - - - - S 48 67 26 36 - - -
20/05:00am - - - - - SSE 43 65 23 35 - - -
20/04:30am - - - - - SSE 50 74 27 40 - - -
20/04:00am - - - - - SSE 43 65 23 35 - - -
20/03:30am - - - - - S 48 72 26 39 - - -
20/03:26am - - - - - S 46 72 25 39 - - -
20/03:22am - - - - - S 52 76 28 41 - - -
20/03:00am - - - - - S 56 76 30 41 - - -
20/02:30am - - - - - S 54 74 29 40 - - -
20/02:00am - - - - - S 56 82 30 44 - - -
20/01:36am - - - - - S 57 76 31 41 - - -
20/01:30am - - - - - S 61 76 33 41 - - -
20/01:00am - - - - - S 63 78 34 42 - - -
20/12:30am - - - - - S 56 76 30 41 - - -
20/12:00am - - - - - S 59 80 32 43 - - -
 
Date/Time
EST
Temp
°C
App
Temp
°C
Dew
Point
°C
Rel
Hum
%
Delta-T
°C
Wind Press
QNH
hPa
Press
MSL
hPa
Rain since
9am
mm
Dir  Spd
km/h
Gust
km/h
Spd
kts
Gust
kts
19/11:30pm - - - - - S 59 80 32 43 - - -
19/11:01pm - - - - - S 59 78 32 42 - - -
19/11:00pm - - - - - S 61 78 33 42 - - -
19/10:59pm - - - - - S 59 78 32 42 - - -
19/10:38pm - - - - - S 46 72 25 39 - - -
19/10:30pm - - - - - S 33 52 18 28 - - -
19/10:00pm - - - - - S 39 61 21 33 - - -
19/09:30pm - - - - - S 33 54 18 29 - - -
19/09:01pm - - - - - S 26 48 14 26 - - -
19/09:00pm - - - - - S 24 41 13 22 - - -
19/08:46pm - - - - - SSW 26 43 14 23 - - -
19/08:32pm - - - - - S 39 57 21 31 - - -
19/08:30pm - - - - - S 41 57 22 31 - - -
19/08:00pm - - - - - S 52 72 28 39 - - -
19/07:39pm - - - - - S 57 76 31 41 - - -
19/07:30pm - - - - - S 65 76 35 41 - - -
19/07:00pm - - - - - S 70 83 38 45 - - -
19/06:34pm - - - - - S 63 85 34 46 - - -
19/06:30pm - - - - - S 63 74 34 40 - - -
19/06:00pm - - - - - S 69 82 37 44 - - -
19/05:41pm - - - - - S 69 91 37 49 - - -
19/05:30pm - - - - - S 69 82 37 44 - - -
19/05:00pm - - - - - S 70 80 38 43 - - -
19/04:30pm - - - - - S 67 80 36 43 - - -
19/04:00pm - - - - - S 69 82 37 44 - - -
19/03:30pm - - - - - S 70 82 38 44 - - -
19/03:16pm - - - - - S 74 93 40 50 - - -
19/03:00pm - - - - - S 74 91 40 49 - - -
19/02:44pm - - - - - S 72 91 39 49 - - -
19/02:30pm - - - - - S 69 83 37 45 - - -
19/02:00pm - - - - - S 69 80 37 43 - - -
19/01:35pm - - - - - S 65 83 35 45 - - -

Latest Capital City Observations: Canberra | Sydney | Melbourne | Brisbane | Adelaide | Perth | Hobart | Darwin

Other Formats:

Comma delimited format used in spreadsheet applications
http://www.bom.gov.au/fwo/IDN60901/IDN60901.95752.axf

JavaScript Object Notation format (JSON) in row-major order
http://www.bom.gov.au/fwo/IDN60901/IDN60901.95752.json